Time,TemperatureF,DewpointF,PressureIn,WindDirection,WindDirectionDegrees,WindSpeedMPH,WindSpeedGustMPH,Humidity,HourlyPrecipIn,Conditions,Clouds,dailyrainin,SoftwareType,DateUTC
2013-11-11 00:09:00,38.6,32.0,30.32,North,355,1.0,2.0,76,0.00,,,0.00,weatherlink.com 1.10,2013-11-11 05:09:00,
2013-11-11 00:24:00,38.4,32.0,30.32,NNW,343,0.0,4.0,77,0.00,,,0.00,weatherlink.com 1.10,2013-11-11 05:24:00,
2013-11-11 00:39:00,37.2,31.0,30.33,SSW,203,1.0,2.0,79,0.00,,,0.00,weatherlink.com 1.10,2013-11-11 05:39:00,
2013-11-11 00:54:00,35.7,31.0,30.33,SSW,212,0.0,1.0,83,0.00,,,0.00,weatherlink.com 1.10,2013-11-11 05:54:00,
2013-11-11 01:09:00,35.6,31.0,30.33,SW,214,0.0,2.0,83,0.00,,,0.00,weatherlink.com 1.10,2013-11-11 06:09:00,
2013-11-11 01:25:00,35.0,31.0,30.34,ESE,119,0.0,3.0,84,0.00,,,0.00,weatherlink.com 1.10,2013-11-11 06:25:00,
2013-11-11 01:40:00,34.9,31.0,30.33,NNE,15,5.0,5.0,87,0.00,,,0.00,weatherlink.com 1.10,2013-11-11 06:40:00,
2013-11-11 01:55:00,34.9,31.0,30.33,North,352,4.0,7.0,87,0.00,,,0.00,weatherlink.com 1.10,2013-11-11 06:55:00,
2013-11-11 02:10:00,34.3,31.0,30.33,NNW,335,0.0,5.0,87,0.00,,,0.00,weatherlink.com 1.10,2013-11-11 07:10:00,
2013-11-11 02:25:00,34.0,31.0,30.34,North,4,3.0,4.0,87,0.00,,,0.00,weatherlink.com 1.10,2013-11-11 07:25:00,
2013-11-11 02:40:00,33.9,31.0,30.34,North,349,4.0,4.0,87,0.00,,,0.00,weatherlink.com 1.10,2013-11-11 07:40:00,
2013-11-11 02:55:00,33.6,30.0,30.33,NNW,342,2.0,6.0,87,0.00,,,0.00,weatherlink.com 1.10,2013-11-11 07:55:00,
2013-11-11 03:10:00,33.0,30.0,30.33,NE,47,2.0,2.0,88,0.00,,,0.00,weatherlink.com 1.10,2013-11-11 08:10:00,
2013-11-11 03:25:00,32.8,29.0,30.33,North,11,4.0,6.0,87,0.00,,,0.00,weatherlink.com 1.10,2013-11-11 08:25:00,
2013-11-11 03:40:00,32.1,29.0,30.32,NNE,33,3.0,4.0,88,0.00,,,0.00,weatherlink.com 1.10,2013-11-11 08:40:00,
2013-11-11 03:55:00,32.0,29.0,30.33,NNE,21,3.0,4.0,88,0.00,,,0.00,weatherlink.com 1.10,2013-11-11 08:55:00,
2013-11-11 04:10:00,31.4,29.0,30.33,NNE,20,3.0,5.0,89,0.00,,,0.00,weatherlink.com 1.10,2013-11-11 09:10:00,
2013-11-11 04:25:00,30.9,28.0,30.33,North,354,3.0,4.0,90,0.00,,,0.00,weatherlink.com 1.10,2013-11-11 09:25:00,
2013-11-11 04:40:00,30.7,28.0,30.33,NNW,330,1.0,4.0,91,0.00,,,0.00,weatherlink.com 1.10,2013-11-11 09:40:00,
2013-11-11 04:55:00,29.9,27.0,30.33,West,280,0.0,1.0,90,0.00,,,0.00,weatherlink.com 1.10,2013-11-11 09:55:00,
2013-11-11 05:10:00,29.2,27.0,30.34,NE,40,2.0,2.0,91,0.00,,,0.00,weatherlink.com 1.10,2013-11-11 10:10:00,
2013-11-11 05:25:00,29.5,28.0,30.34,NNW,328,0.0,2.0,92,0.00,,,0.00,weatherlink.com 1.10,2013-11-11 10:25:00,
2013-11-11 05:40:00,29.6,28.0,30.35,ENE,65,0.0,3.0,93,0.00,,,0.00,weatherlink.com 1.10,2013-11-11 10:40:00,
2013-11-11 05:55:00,29.4,28.0,30.35,North,359,2.0,4.0,93,0.00,,,0.00,weatherlink.com 1.10,2013-11-11 10:55:00,
2013-11-11 06:11:00,29.0,27.0,30.35,NNW,346,0.0,3.0,92,0.00,,,0.00,weatherlink.com 1.10,2013-11-11 11:11:00,
2013-11-11 06:25:00,28.8,27.0,30.35,ENE,60,1.0,2.0,93,0.00,,,0.00,weatherlink.com 1.10,2013-11-11 11:25:00,
2013-11-11 06:42:00,28.7,27.0,30.35,North,349,1.0,1.0,93,0.00,,,0.00,weatherlink.com 1.10,2013-11-11 11:42:00,
2013-11-11 06:55:00,28.5,27.0,30.36,NE,44,1.0,2.0,93,0.00,,,0.00,weatherlink.com 1.10,2013-11-11 11:55:00,
2013-11-11 07:10:00,28.5,27.0,30.36,NNE,30,0.0,1.0,93,0.00,,,0.00,weatherlink.com 1.10,2013-11-11 12:10:00,
2013-11-11 07:25:00,27.7,26.0,30.37,SW,217,0.0,1.0,92,0.00,,,0.00,weatherlink.com 1.10,2013-11-11 12:25:00,
2013-11-11 07:40:00,27.7,26.0,30.37,SW,217,0.0,1.0,93,0.00,,,0.00,weatherlink.com 1.10,2013-11-11 12:40:00,
2013-11-11 07:55:00,27.9,26.0,30.38,NE,40,0.0,0.0,94,0.00,,,0.00,weatherlink.com 1.10,2013-11-11 12:55:00,
2013-11-11 08:10:00,31.1,30.0,30.38,NE,40,0.0,0.0,95,0.00,,,0.00,weatherlink.com 1.10,2013-11-11 13:10:00,
2013-11-11 08:25:00,33.2,30.0,30.38,NE,40,0.0,0.0,88,0.00,,,0.00,weatherlink.com 1.10,2013-11-11 13:25:00,
2013-11-11 08:40:00,35.5,31.0,30.38,NE,47,0.0,0.0,83,0.00,,,0.00,weatherlink.com 1.10,2013-11-11 13:40:00,
2013-11-11 08:55:00,37.4,31.0,30.38,ESE,108,0.0,0.0,79,0.00,,,0.00,weatherlink.com 1.10,2013-11-11 13:55:00,
2013-11-11 09:10:00,39.5,31.0,30.38,SSE,159,2.0,6.0,72,0.00,,,0.00,weatherlink.com 1.10,2013-11-11 14:10:00,
2013-11-11 09:25:00,40.9,31.0,30.38,South,183,2.0,7.0,68,0.00,,,0.00,weatherlink.com 1.10,2013-11-11 14:25:00,
2013-11-11 09:41:00,43.0,31.0,30.38,South,190,1.0,2.0,64,0.00,,,0.00,weatherlink.com 1.10,2013-11-11 14:41:00,
2013-11-11 09:56:00,45.1,31.0,30.38,South,170,3.0,4.0,58,0.00,,,0.00,weatherlink.com 1.10,2013-11-11 14:56:00,
2013-11-11 10:11:00,46.8,31.0,30.38,SSE,153,6.0,6.0,55,0.00,,,0.00,weatherlink.com 1.10,2013-11-11 15:11:00,
2013-11-11 10:26:00,48.0,29.0,30.37,SSW,207,5.0,10.0,49,0.00,,,0.00,weatherlink.com 1.10,2013-11-11 15:26:00,
2013-11-11 10:41:00,49.5,31.0,30.36,SE,141,1.0,8.0,49,0.00,,,0.00,weatherlink.com 1.10,2013-11-11 15:41:00,
2013-11-11 10:56:00,51.6,30.0,30.36,SW,226,4.0,8.0,44,0.00,,,0.00,weatherlink.com 1.10,2013-11-11 15:56:00,
2013-11-11 11:11:00,53.2,30.0,30.35,SSW,208,9.0,10.0,41,0.00,,,0.00,weatherlink.com 1.10,2013-11-11 16:11:00,
2013-11-11 11:26:00,54.3,30.0,30.33,SSE,147,4.0,12.0,39,0.00,,,0.00,weatherlink.com 1.10,2013-11-11 16:26:00,
2013-11-11 11:41:00,55.4,29.0,30.32,South,174,6.0,11.0,37,0.00,,,0.00,weatherlink.com 1.10,2013-11-11 16:41:00,
2013-11-11 11:56:00,55.9,30.0,30.31,SSW,209,5.0,12.0,37,0.00,,,0.00,weatherlink.com 1.10,2013-11-11 16:56:00,
2013-11-11 12:12:00,56.7,29.0,30.30,SW,225,7.0,13.0,35,0.00,,,0.00,weatherlink.com 1.10,2013-11-11 17:12:00,
2013-11-11 12:26:00,57.2,31.0,30.29,SW,229,5.0,10.0,37,0.00,,,0.00,weatherlink.com 1.10,2013-11-11 17:26:00,
2013-11-11 12:41:00,58.0,30.0,30.28,ESE,108,5.0,11.0,35,0.00,,,0.00,weatherlink.com 1.10,2013-11-11 17:41:00,
2013-11-11 12:56:00,58.7,31.0,30.26,SSE,165,4.0,11.0,35,0.00,,,0.00,weatherlink.com 1.10,2013-11-11 17:56:00,
2013-11-11 13:11:00,59.0,32.0,30.25,SW,225,7.0,11.0,36,0.00,,,0.00,weatherlink.com 1.10,2013-11-11 18:11:00,
2013-11-11 13:26:00,60.0,32.0,30.25,SSW,208,7.0,10.0,35,0.00,,,0.00,weatherlink.com 1.10,2013-11-11 18:26:00,
2013-11-11 13:41:00,60.4,32.0,30.24,SSW,207,4.0,10.0,34,0.00,,,0.00,weatherlink.com 1.10,2013-11-11 18:41:00,
2013-11-11 13:56:00,61.1,31.0,30.23,SSW,202,4.0,6.0,32,0.00,,,0.00,weatherlink.com 1.10,2013-11-11 18:56:00,
2013-11-11 14:11:00,61.6,31.0,30.23,SW,229,8.0,8.0,32,0.00,,,0.00,weatherlink.com 1.10,2013-11-11 19:11:00,
2013-11-11 14:28:00,62.2,31.0,30.23,SSW,200,2.0,7.0,31,0.00,,,0.00,weatherlink.com 1.10,2013-11-11 19:28:00,
2013-11-11 14:42:00,62.4,30.0,30.23,SSW,195,0.0,7.0,29,0.00,,,0.00,weatherlink.com 1.10,2013-11-11 19:42:00,
2013-11-11 14:59:00,63.7,28.0,30.22,WSW,250,3.0,7.0,26,0.00,,,0.00,weatherlink.com 1.10,2013-11-11 19:59:00,
2013-11-11 15:15:00,64.0,25.0,30.21,SSW,205,1.0,7.0,23,0.00,,,0.00,weatherlink.com 1.10,2013-11-11 20:15:00,
2013-11-11 15:27:00,64.2,25.0,30.21,SW,218,1.0,3.0,23,0.00,,,0.00,weatherlink.com 1.10,2013-11-11 20:27:00,
2013-11-11 15:42:00,64.5,27.0,30.21,South,181,2.0,3.0,24,0.00,,,0.00,weatherlink.com 1.10,2013-11-11 20:42:00,
2013-11-11 15:57:00,64.8,27.0,30.21,SSW,207,0.0,2.0,24,0.00,,,0.00,weatherlink.com 1.10,2013-11-11 20:57:00,
2013-11-11 16:12:00,64.8,27.0,30.21,SSW,203,0.0,3.0,24,0.00,,,0.00,weatherlink.com 1.10,2013-11-11 21:12:00,
2013-11-11 16:27:00,64.2,28.0,30.21,SW,223,2.0,3.0,25,0.00,,,0.00,weatherlink.com 1.10,2013-11-11 21:27:00,
2013-11-11 16:42:00,62.7,29.0,30.20,WSW,241,4.0,5.0,28,0.00,,,0.00,weatherlink.com 1.10,2013-11-11 21:42:00,
2013-11-11 16:57:00,60.5,31.0,30.20,South,177,3.0,5.0,33,0.00,,,0.00,weatherlink.com 1.10,2013-11-11 21:57:00,
2013-11-11 17:12:00,58.3,32.0,30.20,SSW,198,1.0,3.0,37,0.00,,,0.00,weatherlink.com 1.10,2013-11-11 22:12:00,
2013-11-11 17:27:00,55.9,36.0,30.21,SSW,200,1.0,3.0,47,0.00,,,0.00,weatherlink.com 1.10,2013-11-11 22:27:00,
2013-11-11 17:42:00,53.5,36.0,30.21,SE,144,0.0,2.0,52,0.00,,,0.00,weatherlink.com 1.10,2013-11-11 22:42:00,
2013-11-11 17:57:00,51.3,35.0,30.21,SSW,205,0.0,1.0,55,0.00,,,0.00,weatherlink.com 1.10,2013-11-11 22:57:00,
2013-11-11 18:12:00,49.5,35.0,30.22,SSW,194,0.0,3.0,58,0.00,,,0.00,weatherlink.com 1.10,2013-11-11 23:12:00,
2013-11-11 18:27:00,47.8,36.0,30.22,SSW,197,2.0,2.0,64,0.00,,,0.00,weatherlink.com 1.10,2013-11-11 23:27:00,
2013-11-11 18:42:00,47.2,34.0,30.22,SSE,156,0.0,4.0,60,0.00,,,0.00,weatherlink.com 1.10,2013-11-11 23:42:00,
2013-11-11 18:57:00,46.4,35.0,30.22,SSW,211,2.0,2.0,65,0.00,,,0.00,weatherlink.com 1.10,2013-11-11 23:57:00,
2013-11-11 19:12:00,45.4,34.0,30.23,SSW,207,0.0,3.0,64,0.00,,,0.00,weatherlink.com 1.10,2013-11-12 00:12:00,
2013-11-11 19:27:00,44.6,35.0,30.23,SW,217,2.0,3.0,68,0.00,,,0.00,weatherlink.com 1.10,2013-11-12 00:27:00,
2013-11-11 19:42:00,44.0,34.0,30.23,SSW,198,2.0,4.0,69,0.00,,,0.00,weatherlink.com 1.10,2013-11-12 00:42:00,
2013-11-11 19:57:00,43.5,34.0,30.23,SSW,208,2.0,4.0,68,0.00,,,0.00,weatherlink.com 1.10,2013-11-12 00:57:00,
2013-11-11 20:12:00,43.5,34.0,30.22,SSW,203,3.0,4.0,68,0.00,,,0.00,weatherlink.com 1.10,2013-11-12 01:12:00,
2013-11-11 20:27:00,42.6,33.0,30.23,South,178,4.0,5.0,70,0.00,,,0.00,weatherlink.com 1.10,2013-11-12 01:27:00,
2013-11-11 20:42:00,41.7,33.0,30.23,SSE,149,3.0,4.0,72,0.00,,,0.00,weatherlink.com 1.10,2013-11-12 01:42:00,
2013-11-11 20:57:00,41.6,34.0,30.23,SSE,166,1.0,5.0,73,0.00,,,0.00,weatherlink.com 1.10,2013-11-12 01:57:00,
2013-11-11 21:12:00,40.9,34.0,30.23,SSW,212,1.0,2.0,76,0.00,,,0.00,weatherlink.com 1.10,2013-11-12 02:12:00,
2013-11-11 21:27:00,40.1,34.0,30.24,SSW,210,0.0,1.0,80,0.00,,,0.00,weatherlink.com 1.10,2013-11-12 02:27:00,
2013-11-11 21:42:00,39.2,34.0,30.23,SW,228,0.0,2.0,80,0.00,,,0.00,weatherlink.com 1.10,2013-11-12 02:42:00,
2013-11-11 21:58:00,38.8,34.0,30.24,SSW,204,0.0,1.0,82,0.00,,,0.00,weatherlink.com 1.10,2013-11-12 02:58:00,
2013-11-11 22:12:00,38.3,34.0,30.24,SW,221,0.0,1.0,83,0.00,,,0.00,weatherlink.com 1.10,2013-11-12 03:12:00,
2013-11-11 22:27:00,37.7,32.0,30.23,SSE,166,2.0,2.0,81,0.00,,,0.00,weatherlink.com 1.10,2013-11-12 03:27:00,
2013-11-11 22:42:00,37.5,33.0,30.23,SSE,158,2.0,4.0,82,0.00,,,0.00,weatherlink.com 1.10,2013-11-12 03:42:00,
2013-11-11 22:58:00,37.2,33.0,30.24,North,356,4.0,5.0,85,0.00,,,0.00,weatherlink.com 1.10,2013-11-12 03:58:00,
2013-11-11 23:12:00,38.2,34.0,30.24,NW,326,1.0,6.0,86,0.00,,,0.00,weatherlink.com 1.10,2013-11-12 04:12:00,
2013-11-11 23:27:00,38.4,34.0,30.23,NW,326,1.0,2.0,84,0.00,,,0.00,weatherlink.com 1.10,2013-11-12 04:27:00,
2013-11-11 23:42:00,38.1,33.0,30.22,South,174,4.0,4.0,83,0.00,,,0.00,weatherlink.com 1.10,2013-11-12 04:42:00,
2013-11-11 23:57:00,38.2,34.0,30.23,WNW,301,0.0,2.0,85,0.00,,,0.00,weatherlink.com 1.10,2013-11-12 04:57:00,